This is the latest recevied weather packets stored in our database for station/object N3UJJ-1. If no packets are shown the sender has not sent any weather packets the latest 10 day(s).
| Time | Temp. | Humidity | Pressure | Rain* | Wind** | Luminosity | Snow |
|---|---|---|---|---|---|---|---|
| 1777922960 | 23.89° C | 39% | 1010.3 hPa | 0 mm | - | - | - |
| 1777922060 | 23.89° C | 39% | 1010.6 hPa | 0 mm | - | - | - |
| 1777921159 | 23.89° C | 40% | 1010.7 hPa | 0 mm | - | - | - |
| 1777920259 | 23.33° C | 38% | 1010.9 hPa | 0 mm | - | - | - |
| 1777918459 | 23.33° C | 41% | 1011.3 hPa | 0 mm | - | - | - |
| 1777917559 | 22.78° C | 39% | 1011.4 hPa | 0 mm | - | - | - |
| 1777916659 | 22.78° C | 40% | 1011.6 hPa | 0 mm | - | - | - |
| 1777915759 | 22.22° C | 40% | 1012 hPa | 0 mm | - | - | - |
| 1777890228 | 10.56° C | 74% | 1014.9 hPa | 0 mm | - | - | - |
| 1777889298 | 10.56° C | 75% | 1015 hPa | 0 mm | - | - | - |
| 1777888398 | 10° C | 76% | 1015 hPa | 0 mm | - | - | - |
| 1777887498 | 10° C | 77% | 1015.1 hPa | 0 mm | - | - | - |
| 1777886597 | 10.56° C | 77% | 1015 hPa | 0 mm | - | - | - |
| 1777534618 | 10° C | 96% | 1006.3 hPa | 0 mm | - | - | - |
| 1777533718 | 10° C | 96% | 1006.3 hPa | 0 mm | - | - | - |
| 1777532818 | 10° C | 96% | 1006.4 hPa | 0 mm | - | - | - |
| 1777531917 | 10° C | 96% | 1006.4 hPa | 0 mm | - | - | - |
| 1777531017 | 10° C | 96% | 1006.5 hPa | 0 mm | - | - | - |
| 1777530117 | 10.56° C | 96% | 1006.4 hPa | 0 mm | - | - | - |
| 1777529217 | 10.56° C | 96% | 1006.5 hPa | 0 mm | - | - | - |
| 1777528317 | 10.56° C | 96% | 1006.4 hPa | 0 mm | - | - | - |
| 1777527417 | 11.11° C | 96% | 1006.6 hPa | 0 mm | - | - | - |
| 1777526517 | 11.11° C | 95% | 1006.6 hPa | 0 mm | - | - | - |
| 1777525617 | 11.11° C | 95% | 1006.9 hPa | 0 mm | - | - | - |
| 1777524717 | 11.11° C | 95% | 1006.6 hPa | 0 mm | - | - | - |
* Rain latest hour (hover to see other rain measurements)
** Current wind speed in m/s (hover to see current wind gust speed)